createdAt,value
2019-01-09T00:00:20.695Z,5.90
2019-01-09T00:02:49.184Z,4.43
2019-01-09T00:05:17.663Z,4.60
2019-01-09T00:07:46.088Z,3.83
2019-01-09T00:10:14.504Z,4.10
2019-01-09T00:12:42.917Z,4.40
2019-01-09T00:15:11.470Z,4.77
2019-01-09T00:17:39.948Z,6.97
2019-01-09T00:20:08.358Z,4.23
2019-01-09T00:22:36.773Z,3.13
2019-01-09T00:25:05.738Z,3.03
2019-01-09T00:27:34.136Z,4.17
2019-01-09T00:30:02.621Z,3.67
2019-01-09T00:32:31.037Z,4.70
2019-01-09T00:34:59.452Z,2.83
2019-01-09T00:37:27.864Z,5.67
2019-01-09T00:39:56.268Z,4.07
2019-01-09T00:42:24.710Z,2.67
2019-01-09T00:44:53.191Z,3.57
2019-01-09T00:47:21.660Z,4.67
2019-01-09T00:49:50.137Z,4.27
2019-01-09T00:52:18.560Z,3.60
2019-01-09T00:54:47.048Z,3.67
2019-01-09T00:57:15.460Z,3.10
2019-01-09T00:59:43.864Z,6.83
2019-01-09T01:02:35.523Z,4.17
2019-01-09T01:05:45.930Z,3.33
2019-01-09T01:08:30.868Z,4.50
2019-01-09T01:11:20.380Z,5.87
2019-01-09T01:13:57.836Z,3.83
2019-01-09T01:16:50.336Z,4.03
2019-01-09T01:19:53.413Z,3.43
2019-01-09T01:22:42.534Z,3.63
2019-01-09T01:25:22.798Z,2.37
2019-01-09T01:28:08.912Z,4.63
2019-01-09T01:31:08.826Z,2.60
2019-01-09T01:33:45.896Z,5.00
2019-01-09T01:36:32.045Z,2.63
2019-01-09T01:39:24.405Z,4.77
2019-01-09T01:41:58.790Z,2.63
2019-01-09T01:44:30.275Z,4.67
2019-01-09T01:47:16.440Z,4.70
2019-01-09T01:49:50.871Z,4.20
2019-01-09T01:52:34.362Z,2.37
2019-01-09T01:55:14.811Z,4.33
2019-01-09T01:58:05.435Z,3.47
2019-01-09T02:00:54.084Z,5.90
2019-01-09T02:03:28.256Z,4.43
2019-01-09T02:06:15.990Z,3.77
2019-01-09T02:09:18.733Z,5.70
2019-01-09T02:11:52.884Z,4.40
2019-01-09T02:14:44.833Z,5.00
2019-01-09T02:17:16.321Z,4.37
2019-01-09T02:19:56.736Z,5.20
2019-01-09T02:22:46.229Z,4.60
2019-01-09T02:25:26.341Z,5.77
2019-01-09T02:28:00.749Z,5.30
2019-01-09T02:30:49.848Z,6.07
2019-01-09T02:33:18.263Z,7.03
2019-01-09T02:35:46.684Z,5.20
2019-01-09T02:38:15.086Z,4.27
2019-01-09T02:40:43.500Z,3.70
2019-01-09T02:43:11.901Z,6.13
2019-01-09T02:45:40.313Z,6.10
2019-01-09T02:48:08.720Z,5.43
2019-01-09T02:50:37.124Z,2.90
2019-01-09T02:53:05.544Z,5.20
2019-01-09T02:55:33.945Z,4.10
2019-01-09T02:58:05.579Z,5.87
2019-01-09T03:00:34.059Z,7.03
2019-01-09T03:03:02.611Z,6.07
2019-01-09T03:05:31.049Z,3.53
2019-01-09T03:07:59.449Z,3.33
2019-01-09T03:10:27.874Z,4.63
2019-01-09T03:12:56.289Z,4.63
2019-01-09T03:15:24.927Z,4.20
2019-01-09T03:17:53.508Z,4.57
2019-01-09T03:20:21.904Z,8.20
2019-01-09T03:22:50.322Z,6.07
2019-01-09T03:25:18.747Z,5.20
2019-01-09T03:27:47.204Z,4.17
2019-01-09T03:30:15.693Z,4.47
2019-01-09T03:32:44.101Z,6.37
2019-01-09T03:35:12.513Z,4.80
2019-01-09T03:37:40.930Z,5.03
2019-01-09T03:40:09.344Z,3.00
2019-01-09T03:42:37.830Z,5.17
2019-01-09T03:45:06.875Z,5.33
2019-01-09T03:47:35.273Z,5.30
2019-01-09T03:50:03.772Z,7.20
2019-01-09T03:52:32.173Z,5.00
2019-01-09T03:55:00.711Z,7.27
2019-01-09T03:57:29.167Z,8.93
2019-01-09T03:59:57.587Z,5.97
2019-01-09T04:02:26.012Z,8.27
2019-01-09T04:04:54.427Z,3.37
2019-01-09T04:07:22.837Z,4.30
2019-01-09T04:09:51.236Z,6.30
2019-01-09T04:12:19.652Z,5.23
2019-01-09T04:14:48.071Z,3.80
2019-01-09T04:17:16.472Z,3.77
2019-01-09T04:19:44.885Z,5.13
2019-01-09T04:22:13.293Z,6.57
2019-01-09T04:24:41.704Z,3.33
2019-01-09T04:27:10.120Z,5.40
2019-01-09T04:29:37.304Z,3.53
2019-01-09T04:32:05.717Z,3.50
2019-01-09T04:34:34.113Z,3.20
2019-01-09T04:37:02.534Z,2.63
2019-01-09T04:39:30.943Z,1.97
2019-01-09T04:41:59.367Z,2.43
2019-01-09T04:44:27.892Z,3.67
2019-01-09T04:46:56.358Z,2.33
2019-01-09T04:49:24.755Z,10.17
2019-01-09T04:51:53.160Z,1.77
2019-01-09T04:54:21.560Z,1.30
2019-01-09T04:56:49.960Z,3.50
2019-01-09T04:59:18.369Z,2.30
2019-01-09T05:01:46.768Z,2.10
2019-01-09T05:04:15.244Z,1.83
2019-01-09T05:06:43.652Z,1.20
2019-01-09T05:09:12.060Z,2.30
2019-01-09T05:11:40.461Z,0.70
2019-01-09T05:14:08.873Z,0.97
2019-01-09T05:16:37.274Z,2.27
2019-01-09T05:19:05.678Z,1.07
2019-01-09T05:21:34.084Z,0.63
2019-01-09T05:24:02.495Z,0.80
2019-01-09T05:26:30.887Z,0.60
2019-01-09T05:28:59.301Z,0.67
2019-01-09T05:31:27.703Z,0.90
2019-01-09T05:33:56.107Z,0.77
2019-01-09T05:36:24.515Z,0.80
2019-01-09T05:38:52.919Z,2.27
2019-01-09T05:41:21.324Z,1.13
2019-01-09T05:43:49.725Z,1.20
2019-01-09T05:46:18.135Z,1.53
2019-01-09T05:48:46.558Z,1.77
2019-01-09T05:51:14.958Z,4.73
2019-01-09T05:53:43.443Z,2.37
2019-01-09T05:56:11.845Z,4.20
2019-01-09T05:58:40.260Z,2.27
2019-01-09T06:01:08.663Z,2.20
2019-01-09T06:03:37.068Z,2.87
2019-01-09T06:06:05.477Z,3.27
2019-01-09T06:08:35.740Z,3.63
2019-01-09T06:11:03.999Z,3.47
2019-01-09T06:13:32.405Z,3.87
2019-01-09T06:16:00.804Z,4.80
2019-01-09T06:18:29.216Z,3.90
2019-01-09T06:20:57.618Z,5.87
2019-01-09T06:23:26.033Z,5.20
2019-01-09T06:25:54.440Z,5.07
2019-01-09T06:28:22.852Z,3.67
2019-01-09T06:30:51.269Z,2.90
2019-01-09T06:33:19.668Z,4.00
2019-01-09T06:35:48.082Z,3.30
2019-01-09T06:38:16.560Z,2.70
2019-01-09T06:40:44.968Z,3.20
2019-01-09T06:43:13.373Z,3.87
2019-01-09T06:45:42.006Z,3.97
2019-01-09T06:48:10.521Z,4.90
2019-01-09T06:50:38.898Z,2.17
2019-01-09T06:53:07.305Z,2.60
2019-01-09T06:55:35.726Z,1.93
2019-01-09T06:58:04.118Z,2.13
2019-01-09T07:00:32.533Z,2.53
2019-01-09T07:03:00.939Z,2.57
2019-01-09T07:05:29.340Z,3.13
2019-01-09T07:07:57.750Z,1.57
2019-01-09T07:10:26.149Z,2.10
2019-01-09T07:12:54.561Z,3.07
2019-01-09T07:15:22.984Z,3.83
2019-01-09T07:17:51.455Z,4.17
2019-01-09T07:20:19.867Z,2.17
2019-01-09T07:22:48.268Z,1.83
2019-01-09T07:25:16.681Z,1.90
2019-01-09T07:27:45.147Z,1.53
2019-01-09T07:30:13.559Z,3.10
2019-01-09T07:32:41.972Z,2.23
2019-01-09T07:35:10.376Z,2.00
2019-01-09T07:37:44.992Z,1.77
2019-01-09T07:40:08.976Z,2.97
2019-01-09T07:42:37.461Z,2.07
2019-01-09T07:45:07.908Z,5.00
2019-01-09T07:47:36.304Z,2.13
2019-01-09T07:50:06.755Z,3.33
2019-01-09T07:52:35.160Z,1.77
2019-01-09T07:55:03.916Z,1.50
2019-01-09T07:57:32.337Z,3.30
2019-01-09T08:00:00.738Z,4.27
2019-01-09T08:02:29.142Z,3.60
2019-01-09T08:04:57.544Z,2.30
2019-01-09T08:07:26.023Z,2.67
2019-01-09T08:09:54.608Z,2.73
2019-01-09T08:12:23.001Z,3.47
2019-01-09T08:14:51.414Z,3.67
2019-01-09T08:17:19.816Z,3.43
2019-01-09T08:19:48.229Z,4.47
2019-01-09T08:22:16.633Z,2.93
2019-01-09T08:24:45.045Z,2.23
2019-01-09T08:27:13.454Z,1.37
2019-01-09T08:29:41.865Z,0.97
2019-01-09T08:32:10.277Z,1.17
2019-01-09T08:34:38.683Z,0.70
2019-01-09T08:37:07.087Z,1.17
2019-01-09T08:39:35.503Z,1.73
2019-01-09T08:42:09.389Z,3.73
2019-01-09T08:44:37.872Z,1.93
2019-01-09T08:47:06.283Z,2.97
2019-01-09T08:49:34.685Z,1.80
2019-01-09T08:52:03.088Z,3.20
2019-01-09T08:54:31.487Z,2.30
2019-01-09T08:56:59.901Z,3.03
2019-01-09T08:59:28.299Z,2.70
2019-01-09T09:01:56.712Z,3.33
2019-01-09T09:04:25.119Z,2.63
2019-01-09T09:06:53.521Z,4.13
2019-01-09T09:09:22.372Z,2.80
2019-01-09T09:11:50.776Z,3.67
2019-01-09T09:14:19.184Z,2.70
2019-01-09T09:16:47.667Z,3.47
2019-01-09T09:19:16.067Z,2.80
2019-01-09T09:21:44.501Z,3.90
2019-01-09T09:24:12.894Z,1.53
2019-01-09T09:26:41.310Z,3.27
2019-01-09T09:29:09.713Z,2.70
2019-01-09T09:31:38.110Z,1.87
2019-01-09T09:34:06.523Z,2.87
2019-01-09T09:36:34.911Z,4.30
2019-01-09T09:39:04.863Z,4.77
2019-01-09T09:41:33.267Z,1.93
2019-01-09T09:44:01.671Z,3.43
2019-01-09T09:46:30.080Z,3.87
2019-01-09T09:48:58.483Z,3.73
2019-01-09T09:51:26.889Z,4.57
2019-01-09T09:53:55.291Z,4.70
2019-01-09T09:56:23.695Z,3.07
2019-01-09T09:58:52.099Z,4.47
2019-01-09T10:01:20.517Z,5.80
2019-01-09T10:03:48.925Z,4.40
2019-01-09T10:06:17.333Z,5.57
2019-01-09T10:08:45.735Z,6.03
2019-01-09T10:11:14.147Z,4.60
2019-01-09T10:13:42.547Z,7.23
2019-01-09T10:16:11.021Z,6.40
2019-01-09T10:18:39.431Z,7.03
2019-01-09T10:21:07.828Z,7.80
2019-01-09T10:23:36.235Z,4.40
2019-01-09T10:26:04.711Z,5.07
2019-01-09T10:28:33.113Z,5.80
2019-01-09T10:31:01.515Z,5.20
2019-01-09T10:33:29.991Z,5.70
2019-01-09T10:35:58.405Z,7.40
2019-01-09T10:38:26.809Z,6.87
2019-01-09T10:40:55.207Z,8.30
2019-01-09T10:43:23.608Z,5.83
2019-01-09T10:45:52.024Z,5.77
2019-01-09T10:48:20.422Z,5.40
2019-01-09T10:50:48.828Z,3.50
2019-01-09T10:53:17.227Z,4.80
2019-01-09T10:55:45.631Z,5.30
2019-01-09T10:58:14.036Z,5.23
2019-01-09T11:00:42.443Z,5.23
2019-01-09T11:03:10.847Z,7.50
2019-01-09T11:05:39.255Z,6.67
2019-01-09T11:08:07.674Z,4.33
2019-01-09T11:10:36.067Z,4.90
2019-01-09T11:13:04.608Z,4.87
2019-01-09T11:15:33.007Z,8.43
2019-01-09T11:18:01.425Z,7.07
2019-01-09T11:20:29.834Z,4.20
2019-01-09T11:22:58.260Z,4.70
2019-01-09T11:25:27.151Z,3.90
2019-01-09T11:27:55.717Z,6.23
2019-01-09T11:30:24.115Z,7.23
2019-01-09T11:32:52.516Z,3.33
2019-01-09T11:35:22.953Z,5.70
2019-01-09T11:37:53.010Z,5.90
2019-01-09T11:40:21.791Z,9.33
2019-01-09T11:42:50.261Z,6.03
2019-01-09T11:45:19.914Z,4.47
2019-01-09T11:47:49.840Z,5.03
2019-01-09T11:50:18.422Z,4.73
2019-01-09T11:52:46.817Z,4.93
2019-01-09T11:55:15.803Z,6.27
2019-01-09T11:57:44.206Z,6.00
2019-01-09T12:00:26.891Z,6.97
2019-01-09T12:02:55.436Z,4.47
2019-01-09T12:05:23.970Z,7.70
2019-01-09T12:07:52.380Z,4.97
2019-01-09T12:10:29.968Z,4.73
2019-01-09T12:12:52.747Z,6.33
2019-01-09T12:15:21.168Z,5.60
2019-01-09T12:17:49.844Z,7.50
2019-01-09T12:20:19.696Z,8.50
2019-01-09T12:22:48.927Z,6.20
2019-01-09T12:25:17.399Z,5.10
2019-01-09T12:27:45.811Z,6.63
2019-01-09T12:30:20.194Z,8.23
2019-01-09T12:32:48.598Z,7.17
2019-01-09T12:35:17.141Z,7.37
2019-01-09T12:37:45.557Z,5.67
2019-01-09T12:40:14.104Z,3.50
2019-01-09T12:42:42.557Z,4.80
2019-01-09T12:45:16.552Z,6.47
2019-01-09T12:47:44.967Z,3.70
2019-01-09T12:50:16.453Z,6.10
2019-01-09T12:52:44.855Z,6.57
2019-01-09T12:55:13.272Z,4.07
2019-01-09T12:57:41.668Z,4.43
2019-01-09T13:00:15.949Z,3.73
2019-01-09T13:02:44.355Z,4.20
2019-01-09T13:05:13.235Z,5.43
2019-01-09T13:07:41.871Z,4.43
2019-01-09T13:10:10.958Z,5.17
2019-01-09T13:12:39.664Z,3.33
2019-01-09T13:15:09.875Z,4.90
2019-01-09T13:17:38.307Z,2.97
2019-01-09T13:20:09.787Z,4.43
2019-01-09T13:22:38.195Z,3.20
2019-01-09T13:25:08.135Z,3.73
2019-01-09T13:27:36.526Z,4.53
2019-01-09T13:30:07.747Z,5.10
2019-01-09T13:32:36.159Z,3.37
2019-01-09T13:35:06.293Z,2.77
2019-01-09T13:37:34.700Z,3.80
2019-01-09T13:40:04.719Z,3.60
2019-01-09T13:42:33.136Z,4.40
2019-01-09T13:45:01.545Z,4.73
2019-01-09T13:47:29.962Z,3.43
2019-01-09T13:49:58.362Z,3.57
2019-01-09T13:52:26.768Z,4.77
2019-01-09T13:54:55.175Z,4.63
2019-01-09T13:57:24.163Z,5.70
2019-01-09T13:59:52.664Z,3.23
2019-01-09T14:02:21.064Z,6.37
2019-01-09T14:04:49.480Z,7.40
2019-01-09T14:07:17.904Z,4.70
2019-01-09T14:09:46.318Z,4.33
2019-01-09T14:12:15.555Z,6.80
2019-01-09T14:14:43.960Z,5.63
2019-01-09T14:17:12.372Z,4.53
2019-01-09T14:19:40.797Z,4.70
2019-01-09T14:22:09.205Z,5.07
2019-01-09T14:24:37.629Z,4.23
2019-01-09T14:27:06.029Z,4.30
2019-01-09T14:29:34.458Z,6.37
2019-01-09T14:32:02.868Z,5.60
2019-01-09T14:34:31.270Z,6.03
2019-01-09T14:36:59.684Z,7.00
2019-01-09T14:39:28.088Z,6.87
2019-01-09T14:41:57.416Z,5.53
2019-01-09T14:44:25.808Z,5.33
2019-01-09T14:46:54.212Z,6.30
2019-01-09T14:49:22.613Z,7.60
2019-01-09T14:51:51.015Z,5.50
2019-01-09T14:54:19.436Z,4.80
2019-01-09T14:56:47.841Z,5.80
2019-01-09T14:59:16.244Z,5.77
2019-01-09T15:01:44.652Z,4.93
2019-01-09T15:04:13.111Z,5.33
2019-01-09T15:06:41.582Z,8.23
2019-01-09T15:09:10.028Z,5.40
2019-01-09T15:11:38.495Z,3.27
2019-01-09T15:14:06.982Z,4.83
2019-01-09T15:16:35.401Z,4.40
2019-01-09T15:19:04.023Z,3.77
2019-01-09T15:21:32.440Z,6.60
2019-01-09T15:24:08.448Z,3.10
2019-01-09T15:26:30.975Z,4.23
2019-01-09T15:28:59.381Z,7.33
2019-01-09T15:31:27.799Z,3.60
2019-01-09T15:33:56.208Z,7.30
2019-01-09T15:36:24.610Z,6.03
2019-01-09T15:38:53.021Z,5.73
2019-01-09T15:41:21.650Z,6.43
2019-01-09T15:43:50.195Z,6.23
2019-01-09T15:46:18.602Z,9.13
2019-01-09T15:48:47.022Z,4.37
2019-01-09T15:51:15.441Z,6.70
2019-01-09T15:53:43.867Z,7.27
2019-01-09T15:56:12.291Z,5.50
2019-01-09T15:58:40.757Z,5.20
2019-01-09T16:01:09.181Z,5.30
2019-01-09T16:03:37.608Z,5.20
2019-01-09T16:06:06.156Z,6.50
2019-01-09T16:08:34.574Z,6.27
2019-01-09T16:11:04.506Z,6.73
2019-01-09T16:13:33.036Z,6.60
2019-01-09T16:16:01.436Z,7.67
2019-01-09T16:18:29.856Z,8.33
2019-01-09T16:20:58.257Z,7.20
2019-01-09T16:23:26.679Z,6.03
2019-01-09T16:25:55.142Z,6.77
2019-01-09T16:28:23.568Z,5.77
2019-01-09T16:30:57.584Z,5.90
2019-01-09T16:33:26.012Z,10.07
2019-01-09T16:35:54.443Z,11.17
2019-01-09T16:38:22.848Z,6.53
2019-01-09T16:40:51.272Z,7.40
2019-01-09T16:43:19.688Z,7.60
2019-01-09T16:45:48.099Z,10.33
2019-01-09T16:48:16.518Z,6.67
2019-01-09T16:50:44.931Z,8.23
2019-01-09T16:53:13.363Z,7.53
2019-01-09T16:55:41.837Z,10.13
2019-01-09T16:58:10.349Z,7.37
2019-01-09T17:00:41.102Z,10.90
2019-01-09T17:03:09.592Z,8.13
2019-01-09T17:05:38.428Z,10.60
2019-01-09T17:08:07.127Z,6.77
2019-01-09T17:10:35.618Z,7.63
2019-01-09T17:13:04.165Z,8.50
2019-01-09T17:15:32.652Z,8.10
2019-01-09T17:18:01.436Z,8.13
2019-01-09T17:20:32.035Z,10.33
2019-01-09T17:23:00.531Z,6.73
2019-01-09T17:25:29.007Z,9.13
2019-01-09T17:27:57.432Z,8.83
2019-01-09T17:30:31.504Z,8.53
2019-01-09T17:32:59.999Z,8.37
2019-01-09T17:35:28.419Z,8.87
2019-01-09T17:37:56.837Z,12.20
2019-01-09T17:40:25.398Z,10.73
2019-01-09T17:42:54.135Z,9.40
2019-01-09T17:45:22.604Z,9.23
2019-01-09T17:47:51.023Z,9.50
2019-01-09T17:50:27.884Z,10.80
2019-01-09T17:52:56.683Z,8.50
2019-01-09T17:55:25.359Z,8.83
2019-01-09T17:57:53.786Z,8.27
2019-01-09T18:00:36.366Z,12.80
2019-01-09T18:03:05.024Z,9.37
2019-01-09T18:05:33.437Z,8.90
2019-01-09T18:08:10.120Z,11.53
2019-01-09T18:10:31.984Z,9.77
2019-01-09T18:13:00.432Z,11.30
2019-01-09T18:15:28.889Z,9.77
2019-01-09T18:17:57.305Z,9.77
2019-01-09T18:20:25.775Z,8.20
2019-01-09T18:22:54.211Z,9.60
2019-01-09T18:25:24.962Z,9.17
2019-01-09T18:27:53.469Z,8.40
2019-01-09T18:30:30.958Z,7.37
2019-01-09T18:33:05.247Z,10.87
2019-01-09T18:35:51.876Z,11.63
2019-01-09T18:38:23.388Z,9.83
2019-01-09T18:41:06.301Z,8.60
2019-01-09T18:43:52.790Z,10.00
2019-01-09T18:46:27.220Z,11.97
2019-01-09T18:49:28.409Z,8.93
2019-01-09T18:52:08.924Z,12.23
2019-01-09T18:54:37.449Z,9.43
2019-01-09T18:57:06.033Z,10.50
2019-01-09T18:59:34.457Z,9.00
2019-01-09T19:02:02.944Z,11.20
2019-01-09T19:04:31.343Z,9.83
2019-01-09T19:06:59.762Z,9.67
2019-01-09T19:09:28.256Z,8.50
2019-01-09T19:11:56.731Z,12.47
2019-01-09T19:14:25.144Z,9.73
2019-01-09T19:16:53.549Z,11.10
2019-01-09T19:19:22.045Z,10.50
2019-01-09T19:21:50.462Z,8.77
2019-01-09T19:24:18.863Z,8.77
2019-01-09T19:26:47.283Z,9.00
2019-01-09T19:29:15.689Z,8.57
2019-01-09T19:31:44.172Z,10.67
2019-01-09T19:34:12.576Z,8.67
2019-01-09T19:36:40.997Z,10.03
2019-01-09T19:39:09.768Z,9.00
2019-01-09T19:41:38.193Z,9.10
2019-01-09T19:44:06.743Z,9.33
2019-01-09T19:46:35.207Z,8.93
2019-01-09T19:49:05.709Z,8.37
2019-01-09T19:51:33.908Z,9.43
2019-01-09T19:54:02.401Z,9.90
2019-01-09T19:56:30.884Z,9.60
2019-01-09T19:58:59.296Z,9.00
2019-01-09T20:01:27.795Z,9.97
2019-01-09T20:03:56.273Z,8.77
2019-01-09T20:06:24.827Z,8.07
2019-01-09T20:08:53.238Z,8.57
2019-01-09T20:11:26.491Z,9.57
2019-01-09T20:13:51.933Z,10.80
2019-01-09T20:16:20.762Z,9.43
2019-01-09T20:18:50.032Z,9.80
2019-01-09T20:21:18.803Z,9.50
2019-01-09T20:23:47.409Z,11.23
2019-01-09T20:26:15.864Z,6.03
2019-01-09T20:28:44.301Z,7.60
2019-01-09T20:31:12.812Z,7.63
2019-01-09T20:33:41.270Z,8.03
2019-01-09T20:36:09.733Z,6.97
2019-01-09T20:38:38.181Z,8.03
2019-01-09T20:41:06.719Z,7.77
2019-01-09T20:43:35.145Z,12.83
2019-01-09T20:46:03.739Z,7.40
2019-01-09T20:48:32.185Z,7.77
2019-01-09T20:51:00.788Z,6.87
2019-01-09T20:53:29.289Z,6.23
2019-01-09T20:55:57.781Z,7.33
2019-01-09T20:58:26.256Z,8.27
2019-01-09T21:00:54.681Z,7.33
2019-01-09T21:03:23.147Z,6.77
2019-01-09T21:05:51.700Z,7.07
2019-01-09T21:08:20.270Z,7.23
2019-01-09T21:10:48.739Z,6.67
2019-01-09T21:13:17.150Z,8.03
2019-01-09T21:15:45.737Z,6.80
2019-01-09T21:18:14.225Z,8.83
2019-01-09T21:20:42.632Z,7.53
2019-01-09T21:23:11.048Z,6.90
2019-01-09T21:25:39.459Z,6.27
2019-01-09T21:28:08.115Z,7.83
2019-01-09T21:30:36.609Z,6.97
2019-01-09T21:33:05.352Z,8.37
2019-01-09T21:35:33.841Z,5.87
2019-01-09T21:38:02.313Z,5.83
2019-01-09T21:40:30.799Z,6.53
2019-01-09T21:42:59.225Z,7.23
2019-01-09T21:45:27.702Z,5.60
2019-01-09T21:47:56.186Z,6.73
2019-01-09T21:50:25.525Z,6.87
2019-01-09T21:52:54.112Z,5.43
2019-01-09T21:55:22.756Z,5.83
2019-01-09T21:57:51.235Z,6.70
2019-01-09T22:00:26.916Z,5.73
2019-01-09T22:02:55.336Z,6.00
2019-01-09T22:05:24.290Z,5.73
2019-01-09T22:07:52.832Z,5.90
2019-01-09T22:10:23.881Z,4.17
2019-01-09T22:12:52.293Z,5.43
2019-01-09T22:15:21.046Z,5.40
2019-01-09T22:17:49.458Z,5.50
2019-01-09T22:20:18.140Z,4.33
2019-01-09T22:22:46.997Z,6.70
2019-01-09T22:25:15.552Z,5.60
2019-01-09T22:27:44.036Z,5.93
2019-01-09T22:30:18.333Z,6.73
2019-01-09T22:32:46.876Z,6.33
2019-01-09T22:35:15.315Z,5.70
2019-01-09T22:37:43.725Z,5.47
2019-01-09T22:40:21.034Z,5.43
2019-01-09T22:42:49.573Z,5.90
2019-01-09T22:45:18.128Z,4.77
2019-01-09T22:47:46.547Z,4.60
2019-01-09T22:50:19.940Z,4.30
2019-01-09T22:52:48.618Z,3.90
2019-01-09T22:55:17.097Z,5.90
2019-01-09T22:57:45.502Z,4.47
2019-01-09T23:00:19.571Z,4.50
2019-01-09T23:02:48.041Z,5.03
2019-01-09T23:05:16.529Z,4.67
2019-01-09T23:07:46.654Z,6.03
2019-01-09T23:10:15.252Z,4.53
2019-01-09T23:12:43.749Z,4.43
2019-01-09T23:15:12.285Z,4.13
2019-01-09T23:17:40.836Z,4.70
2019-01-09T23:20:11.861Z,5.93
2019-01-09T23:22:40.348Z,4.33
2019-01-09T23:25:09.004Z,4.90
2019-01-09T23:27:37.492Z,4.60
2019-01-09T23:30:11.076Z,5.43
2019-01-09T23:32:39.925Z,5.97
2019-01-09T23:35:10.476Z,4.90
2019-01-09T23:37:38.956Z,6.70
2019-01-09T23:40:09.875Z,5.73
2019-01-09T23:42:38.433Z,5.17
2019-01-09T23:45:09.743Z,5.27
2019-01-09T23:47:38.231Z,4.40
2019-01-09T23:50:08.863Z,4.27
2019-01-09T23:52:37.276Z,4.63
2019-01-09T23:55:08.275Z,4.13
2019-01-09T23:57:36.675Z,4.70
